sensor_id;sensor_type;location;lat;lon;timestamp;temperature;humidity
23377;DHT22;14353;46.070;13.222;2022-10-16T00:01:26;24.00;47.70
23377;DHT22;14353;46.070;13.222;2022-10-16T00:03:52;24.00;47.70
23377;DHT22;14353;46.070;13.222;2022-10-16T00:06:18;24.00;47.60
23377;DHT22;14353;46.070;13.222;2022-10-16T00:08:44;24.00;47.70
23377;DHT22;14353;46.070;13.222;2022-10-16T00:11:12;24.00;47.70
23377;DHT22;14353;46.070;13.222;2022-10-16T00:13:41;24.00;47.70
23377;DHT22;14353;46.070;13.222;2022-10-16T00:16:07;24.00;47.70
23377;DHT22;14353;46.070;13.222;2022-10-16T00:18:33;24.00;47.70
23377;DHT22;14353;46.070;13.222;2022-10-16T00:21:03;24.00;47.70
23377;DHT22;14353;46.070;13.222;2022-10-16T00:23:39;24.00;47.70
23377;DHT22;14353;46.070;13.222;2022-10-16T00:26:06;24.00;47.70
23377;DHT22;14353;46.070;13.222;2022-10-16T00:28:32;23.90;47.70
23377;DHT22;14353;46.070;13.222;2022-10-16T00:31:07;23.90;47.70
23377;DHT22;14353;46.070;13.222;2022-10-16T00:33:34;23.90;47.70
23377;DHT22;14353;46.070;13.222;2022-10-16T00:36:00;23.90;47.70
23377;DHT22;14353;46.070;13.222;2022-10-16T00:38:29;23.90;47.70
23377;DHT22;14353;46.070;13.222;2022-10-16T00:40:58;23.90;47.70
23377;DHT22;14353;46.070;13.222;2022-10-16T00:48:48;23.90;47.70
23377;DHT22;14353;46.070;13.222;2022-10-16T00:51:15;23.90;47.70
23377;DHT22;14353;46.070;13.222;2022-10-16T00:53:42;23.90;47.80
23377;DHT22;14353;46.070;13.222;2022-10-16T00:56:07;23.90;47.80
23377;DHT22;14353;46.070;13.222;2022-10-16T00:58:33;23.90;47.80
23377;DHT22;14353;46.070;13.222;2022-10-16T01:01:01;23.90;47.80
23377;DHT22;14353;46.070;13.222;2022-10-16T01:03:28;23.90;47.80
23377;DHT22;14353;46.070;13.222;2022-10-16T01:05:59;23.90;47.80
23377;DHT22;14353;46.070;13.222;2022-10-16T01:08:39;23.90;47.80
23377;DHT22;14353;46.070;13.222;2022-10-16T01:11:15;23.90;47.80
23377;DHT22;14353;46.070;13.222;2022-10-16T01:13:44;23.90;47.80
23377;DHT22;14353;46.070;13.222;2022-10-16T01:18:40;23.90;47.80
23377;DHT22;14353;46.070;13.222;2022-10-16T01:21:10;23.90;47.80
23377;DHT22;14353;46.070;13.222;2022-10-16T01:26:13;23.90;47.80
23377;DHT22;14353;46.070;13.222;2022-10-16T01:29:00;23.90;47.80
23377;DHT22;14353;46.070;13.222;2022-10-16T01:31:29;23.90;47.80
23377;DHT22;14353;46.070;13.222;2022-10-16T01:34:00;23.80;47.80
23377;DHT22;14353;46.070;13.222;2022-10-16T01:36:38;23.80;47.80
23377;DHT22;14353;46.070;13.222;2022-10-16T01:39:09;23.80;47.80
23377;DHT22;14353;46.070;13.222;2022-10-16T01:41:38;23.90;47.80
23377;DHT22;14353;46.070;13.222;2022-10-16T01:44:16;23.80;47.80
23377;DHT22;14353;46.070;13.222;2022-10-16T01:46:48;23.90;47.90
23377;DHT22;14353;46.070;13.222;2022-10-16T01:49:15;23.80;47.80
23377;DHT22;14353;46.070;13.222;2022-10-16T01:51:42;23.80;47.90
23377;DHT22;14353;46.070;13.222;2022-10-16T01:54:08;23.80;47.80
23377;DHT22;14353;46.070;13.222;2022-10-16T01:56:37;23.80;47.90
23377;DHT22;14353;46.070;13.222;2022-10-16T01:59:09;23.80;47.90
23377;DHT22;14353;46.070;13.222;2022-10-16T02:01:37;23.80;47.90
23377;DHT22;14353;46.070;13.222;2022-10-16T02:04:10;23.80;47.90
23377;DHT22;14353;46.070;13.222;2022-10-16T02:06:37;23.80;47.90
23377;DHT22;14353;46.070;13.222;2022-10-16T02:09:03;23.80;47.90
23377;DHT22;14353;46.070;13.222;2022-10-16T02:11:29;23.80;47.90
23377;DHT22;14353;46.070;13.222;2022-10-16T02:14:04;23.80;47.90
23377;DHT22;14353;46.070;13.222;2022-10-16T02:16:33;23.80;47.90
23377;DHT22;14353;46.070;13.222;2022-10-16T02:18:59;23.80;47.80
23377;DHT22;14353;46.070;13.222;2022-10-16T02:21:35;23.80;48.10
23377;DHT22;14353;46.070;13.222;2022-10-16T02:29:34;23.80;47.90
23377;DHT22;14353;46.070;13.222;2022-10-16T02:32:04;23.80;47.90
23377;DHT22;14353;46.070;13.222;2022-10-16T02:34:34;23.80;47.90
23377;DHT22;14353;46.070;13.222;2022-10-16T02:37:01;23.70;47.90
23377;DHT22;14353;46.070;13.222;2022-10-16T02:39:28;23.70;47.90
23377;DHT22;14353;46.070;13.222;2022-10-16T02:41:54;23.70;47.90
23377;DHT22;14353;46.070;13.222;2022-10-16T02:44:19;23.70;47.90
23377;DHT22;14353;46.070;13.222;2022-10-16T02:46:48;23.70;47.90
23377;DHT22;14353;46.070;13.222;2022-10-16T02:49:14;23.70;47.90
23377;DHT22;14353;46.070;13.222;2022-10-16T02:51:39;23.70;47.90
23377;DHT22;14353;46.070;13.222;2022-10-16T02:54:08;23.70;47.90
23377;DHT22;14353;46.070;13.222;2022-10-16T02:56:33;23.70;48.00
23377;DHT22;14353;46.070;13.222;2022-10-16T02:59:02;23.70;47.90
23377;DHT22;14353;46.070;13.222;2022-10-16T03:01:28;23.70;47.90
23377;DHT22;14353;46.070;13.222;2022-10-16T03:03:54;23.70;48.00
23377;DHT22;14353;46.070;13.222;2022-10-16T03:06:22;23.70;48.00
23377;DHT22;14353;46.070;13.222;2022-10-16T03:08:48;23.70;48.00
23377;DHT22;14353;46.070;13.222;2022-10-16T03:11:14;23.70;48.00
23377;DHT22;14353;46.070;13.222;2022-10-16T03:13:42;23.70;48.00
23377;DHT22;14353;46.070;13.222;2022-10-16T03:16:08;23.70;48.00
23377;DHT22;14353;46.070;13.222;2022-10-16T03:18:37;23.70;48.10
23377;DHT22;14353;46.070;13.222;2022-10-16T03:21:03;23.70;48.10
23377;DHT22;14353;46.070;13.222;2022-10-16T03:23:28;23.60;48.00
23377;DHT22;14353;46.070;13.222;2022-10-16T03:25:54;23.60;48.10
23377;DHT22;14353;46.070;13.222;2022-10-16T03:28:20;23.70;48.10
23377;DHT22;14353;46.070;13.222;2022-10-16T03:30:46;23.60;48.10
23377;DHT22;14353;46.070;13.222;2022-10-16T03:33:14;23.60;48.10
23377;DHT22;14353;46.070;13.222;2022-10-16T03:35:40;23.60;48.10
23377;DHT22;14353;46.070;13.222;2022-10-16T03:38:06;23.60;48.10
23377;DHT22;14353;46.070;13.222;2022-10-16T03:40:31;23.60;48.20
23377;DHT22;14353;46.070;13.222;2022-10-16T03:43:00;23.60;48.20
23377;DHT22;14353;46.070;13.222;2022-10-16T03:45:29;23.60;48.20
23377;DHT22;14353;46.070;13.222;2022-10-16T03:47:54;23.60;48.20
23377;DHT22;14353;46.070;13.222;2022-10-16T03:50:20;23.50;48.20
23377;DHT22;14353;46.070;13.222;2022-10-16T03:52:46;23.60;48.20
23377;DHT22;14353;46.070;13.222;2022-10-16T03:55:14;23.50;48.20
23377;DHT22;14353;46.070;13.222;2022-10-16T03:57:40;23.50;48.20
23377;DHT22;14353;46.070;13.222;2022-10-16T04:00:06;23.50;48.20
23377;DHT22;14353;46.070;13.222;2022-10-16T04:02:38;23.50;48.20
23377;DHT22;14353;46.070;13.222;2022-10-16T04:05:06;23.60;48.20
23377;DHT22;14353;46.070;13.222;2022-10-16T04:07:32;23.60;48.90
23377;DHT22;14353;46.070;13.222;2022-10-16T04:09:58;23.50;48.20
23377;DHT22;14353;46.070;13.222;2022-10-16T04:12:26;23.50;48.20
23377;DHT22;14353;46.070;13.222;2022-10-16T04:14:52;23.50;48.20
23377;DHT22;14353;46.070;13.222;2022-10-16T04:17:18;23.50;48.20
23377;DHT22;14353;46.070;13.222;2022-10-16T04:19:47;23.50;48.20
23377;DHT22;14353;46.070;13.222;2022-10-16T04:22:12;23.50;48.20
23377;DHT22;14353;46.070;13.222;2022-10-16T04:24:38;23.50;48.20
23377;DHT22;14353;46.070;13.222;2022-10-16T04:27:04;23.50;48.30
23377;DHT22;14353;46.070;13.222;2022-10-16T04:29:29;23.50;48.30
23377;DHT22;14353;46.070;13.222;2022-10-16T04:31:55;23.50;48.20
23377;DHT22;14353;46.070;13.222;2022-10-16T04:34:21;23.50;48.30
23377;DHT22;14353;46.070;13.222;2022-10-16T04:36:47;23.50;48.30
23377;DHT22;14353;46.070;13.222;2022-10-16T04:39:13;23.50;48.30
23377;DHT22;14353;46.070;13.222;2022-10-16T04:41:39;23.50;48.30
23377;DHT22;14353;46.070;13.222;2022-10-16T04:44:05;23.40;48.20
23377;DHT22;14353;46.070;13.222;2022-10-16T04:46:30;23.50;48.30
23377;DHT22;14353;46.070;13.222;2022-10-16T04:48:56;23.50;48.30
23377;DHT22;14353;46.070;13.222;2022-10-16T04:51:22;23.50;48.30
23377;DHT22;14353;46.070;13.222;2022-10-16T04:53:51;23.50;48.30
23377;DHT22;14353;46.070;13.222;2022-10-16T04:56:29;23.40;48.20
23377;DHT22;14353;46.070;13.222;2022-10-16T04:58:57;23.50;48.30
23377;DHT22;14353;46.070;13.222;2022-10-16T05:01:22;23.50;48.30
23377;DHT22;14353;46.070;13.222;2022-10-16T05:03:48;23.40;48.20
23377;DHT22;14353;46.070;13.222;2022-10-16T05:06:35;23.40;48.30
23377;DHT22;14353;46.070;13.222;2022-10-16T05:09:00;23.50;48.30
23377;DHT22;14353;46.070;13.222;2022-10-16T05:11:29;23.40;48.20
23377;DHT22;14353;46.070;13.222;2022-10-16T05:14:00;23.40;48.30
23377;DHT22;14353;46.070;13.222;2022-10-16T05:16:32;23.40;48.30
23377;DHT22;14353;46.070;13.222;2022-10-16T05:19:01;23.40;48.30
23377;DHT22;14353;46.070;13.222;2022-10-16T05:21:32;23.50;48.30
23377;DHT22;14353;46.070;13.222;2022-10-16T05:24:00;23.40;48.30
23377;DHT22;14353;46.070;13.222;2022-10-16T05:26:26;23.40;48.30
23377;DHT22;14353;46.070;13.222;2022-10-16T05:28:55;23.40;48.30
23377;DHT22;14353;46.070;13.222;2022-10-16T05:31:23;23.40;48.30
23377;DHT22;14353;46.070;13.222;2022-10-16T05:33:49;23.40;48.30
23377;DHT22;14353;46.070;13.222;2022-10-16T05:36:18;23.40;48.30
23377;DHT22;14353;46.070;13.222;2022-10-16T05:38:43;23.40;48.30
23377;DHT22;14353;46.070;13.222;2022-10-16T05:41:15;23.40;48.30
23377;DHT22;14353;46.070;13.222;2022-10-16T05:43:47;23.40;48.30
23377;DHT22;14353;46.070;13.222;2022-10-16T05:46:13;23.40;48.30
23377;DHT22;14353;46.070;13.222;2022-10-16T05:48:42;23.40;48.20
23377;DHT22;14353;46.070;13.222;2022-10-16T05:51:11;23.40;48.30
23377;DHT22;14353;46.070;13.222;2022-10-16T05:53:38;23.40;48.30
23377;DHT22;14353;46.070;13.222;2022-10-16T05:56:04;23.40;48.30
23377;DHT22;14353;46.070;13.222;2022-10-16T05:58:31;23.40;48.20
23377;DHT22;14353;46.070;13.222;2022-10-16T06:00:58;23.40;48.20
23377;DHT22;14353;46.070;13.222;2022-10-16T06:03:24;23.40;48.20
23377;DHT22;14353;46.070;13.222;2022-10-16T06:05:50;23.40;48.20
23377;DHT22;14353;46.070;13.222;2022-10-16T06:08:16;23.40;48.20
23377;DHT22;14353;46.070;13.222;2022-10-16T06:10:45;23.40;48.20
23377;DHT22;14353;46.070;13.222;2022-10-16T06:13:11;23.40;48.10
23377;DHT22;14353;46.070;13.222;2022-10-16T06:15:42;23.40;48.20
23377;DHT22;14353;46.070;13.222;2022-10-16T06:18:09;23.40;48.10
23377;DHT22;14353;46.070;13.222;2022-10-16T06:20:35;23.40;48.10
23377;DHT22;14353;46.070;13.222;2022-10-16T06:23:01;23.50;48.10
23377;DHT22;14353;46.070;13.222;2022-10-16T06:25:26;23.50;48.10
23377;DHT22;14353;46.070;13.222;2022-10-16T06:27:52;23.50;48.10
23377;DHT22;14353;46.070;13.222;2022-10-16T06:30:18;23.50;48.10
23377;DHT22;14353;46.070;13.222;2022-10-16T06:32:50;23.50;48.00
23377;DHT22;14353;46.070;13.222;2022-10-16T06:35:15;23.50;48.00
23377;DHT22;14353;46.070;13.222;2022-10-16T06:37:42;23.50;47.90
23377;DHT22;14353;46.070;13.222;2022-10-16T06:40:07;23.60;47.90
23377;DHT22;14353;46.070;13.222;2022-10-16T06:42:36;23.50;47.90
23377;DHT22;14353;46.070;13.222;2022-10-16T06:45:02;23.60;47.90
23377;DHT22;14353;46.070;13.222;2022-10-16T06:47:37;23.60;47.80
23377;DHT22;14353;46.070;13.222;2022-10-16T06:50:03;23.60;47.80
23377;DHT22;14353;46.070;13.222;2022-10-16T06:52:29;23.60;47.70
23377;DHT22;14353;46.070;13.222;2022-10-16T06:54:55;23.60;47.70
23377;DHT22;14353;46.070;13.222;2022-10-16T06:57:23;23.70;47.70
23377;DHT22;14353;46.070;13.222;2022-10-16T06:59:49;23.70;47.60
23377;DHT22;14353;46.070;13.222;2022-10-16T07:02:14;23.70;47.50
23377;DHT22;14353;46.070;13.222;2022-10-16T07:04:40;23.70;47.50
23377;DHT22;14353;46.070;13.222;2022-10-16T07:07:06;23.70;47.50
23377;DHT22;14353;46.070;13.222;2022-10-16T07:09:31;23.70;47.40
23377;DHT22;14353;46.070;13.222;2022-10-16T07:11:57;23.80;47.30
23377;DHT22;14353;46.070;13.222;2022-10-16T07:14:23;23.80;47.30
23377;DHT22;14353;46.070;13.222;2022-10-16T07:16:51;23.80;47.20
23377;DHT22;14353;46.070;13.222;2022-10-16T07:19:20;23.80;47.20
23377;DHT22;14353;46.070;13.222;2022-10-16T07:21:46;23.90;47.10
23377;DHT22;14353;46.070;13.222;2022-10-16T07:24:13;23.90;47.10
23377;DHT22;14353;46.070;13.222;2022-10-16T07:26:39;23.90;47.00
23377;DHT22;14353;46.070;13.222;2022-10-16T07:29:16;23.90;46.90
23377;DHT22;14353;46.070;13.222;2022-10-16T07:31:42;24.00;46.90
23377;DHT22;14353;46.070;13.222;2022-10-16T07:34:08;23.90;46.70
23377;DHT22;14353;46.070;13.222;2022-10-16T07:36:34;24.00;46.70
23377;DHT22;14353;46.070;13.222;2022-10-16T07:39:03;24.00;46.70
23377;DHT22;14353;46.070;13.222;2022-10-16T07:41:32;24.00;46.70
23377;DHT22;14353;46.070;13.222;2022-10-16T07:44:02;24.00;46.70
23377;DHT22;14353;46.070;13.222;2022-10-16T07:46:28;24.00;46.70
23377;DHT22;14353;46.070;13.222;2022-10-16T07:48:56;24.00;46.60
23377;DHT22;14353;46.070;13.222;2022-10-16T07:51:23;24.00;46.60
23377;DHT22;14353;46.070;13.222;2022-10-16T07:53:49;24.00;46.60
23377;DHT22;14353;46.070;13.222;2022-10-16T07:56:15;24.00;46.60
23377;DHT22;14353;46.070;13.222;2022-10-16T07:58:41;24.00;46.60
23377;DHT22;14353;46.070;13.222;2022-10-16T08:01:08;24.00;46.60
23377;DHT22;14353;46.070;13.222;2022-10-16T08:03:34;24.10;46.60
23377;DHT22;14353;46.070;13.222;2022-10-16T08:06:08;24.10;46.50
23377;DHT22;14353;46.070;13.222;2022-10-16T08:08:34;24.10;46.40
23377;DHT22;14353;46.070;13.222;2022-10-16T08:11:00;24.10;46.40
23377;DHT22;14353;46.070;13.222;2022-10-16T08:13:29;24.20;46.30
23377;DHT22;14353;46.070;13.222;2022-10-16T08:15:55;24.20;46.20
23377;DHT22;14353;46.070;13.222;2022-10-16T08:18:20;24.30;46.20
23377;DHT22;14353;46.070;13.222;2022-10-16T08:20:46;24.30;46.10
23377;DHT22;14353;46.070;13.222;2022-10-16T08:23:12;24.30;46.00
23377;DHT22;14353;46.070;13.222;2022-10-16T08:25:38;24.40;45.80
23377;DHT22;14353;46.070;13.222;2022-10-16T08:28:08;24.40;45.70
23377;DHT22;14353;46.070;13.222;2022-10-16T08:30:37;24.50;45.50
23377;DHT22;14353;46.070;13.222;2022-10-16T08:33:03;24.50;45.40
23377;DHT22;14353;46.070;13.222;2022-10-16T08:35:31;24.60;45.30
23377;DHT22;14353;46.070;13.222;2022-10-16T08:37:57;24.60;45.20
23377;DHT22;14353;46.070;13.222;2022-10-16T08:40:24;24.60;45.10
23377;DHT22;14353;46.070;13.222;2022-10-16T08:45:29;24.70;44.80
23377;DHT22;14353;46.070;13.222;2022-10-16T08:50:37;24.80;44.70
23377;DHT22;14353;46.070;13.222;2022-10-16T08:53:06;24.90;44.70
23377;DHT22;14353;46.070;13.222;2022-10-16T08:58:16;25.00;44.40
23377;DHT22;14353;46.070;13.222;2022-10-16T09:00:42;25.00;44.30
23377;DHT22;14353;46.070;13.222;2022-10-16T09:03:23;25.00;44.10
23377;DHT22;14353;46.070;13.222;2022-10-16T09:05:54;25.10;44.00
23377;DHT22;14353;46.070;13.222;2022-10-16T09:08:29;25.10;43.90
23377;DHT22;14353;46.070;13.222;2022-10-16T09:11:00;25.20;43.80
23377;DHT22;14353;46.070;13.222;2022-10-16T09:13:34;25.30;43.80
23377;DHT22;14353;46.070;13.222;2022-10-16T09:16:24;25.30;43.70
23377;DHT22;14353;46.070;13.222;2022-10-16T09:21:18;25.40;43.50
23377;DHT22;14353;46.070;13.222;2022-10-16T09:23:45;25.40;43.40
23377;DHT22;14353;46.070;13.222;2022-10-16T09:26:13;25.40;43.20
23377;DHT22;14353;46.070;13.222;2022-10-16T09:28:39;25.50;43.30
23377;DHT22;14353;46.070;13.222;2022-10-16T09:31:07;25.50;43.10
23377;DHT22;14353;46.070;13.222;2022-10-16T09:33:36;25.60;43.00
23377;DHT22;14353;46.070;13.222;2022-10-16T09:36:03;25.60;43.00
23377;DHT22;14353;46.070;13.222;2022-10-16T09:38:31;25.70;42.90
23377;DHT22;14353;46.070;13.222;2022-10-16T09:41:00;25.70;42.80
23377;DHT22;14353;46.070;13.222;2022-10-16T09:43:34;25.70;42.70
23377;DHT22;14353;46.070;13.222;2022-10-16T09:48:36;25.80;42.60
23377;DHT22;14353;46.070;13.222;2022-10-16T09:51:03;25.90;42.60
23377;DHT22;14353;46.070;13.222;2022-10-16T09:53:39;25.90;42.50
23377;DHT22;14353;46.070;13.222;2022-10-16T09:56:06;25.90;42.40
23377;DHT22;14353;46.070;13.222;2022-10-16T09:58:32;26.00;42.40
23377;DHT22;14353;46.070;13.222;2022-10-16T10:00:58;26.00;42.20
23377;DHT22;14353;46.070;13.222;2022-10-16T10:03:34;26.10;42.10
23377;DHT22;14353;46.070;13.222;2022-10-16T10:06:23;26.20;42.00
23377;DHT22;14353;46.070;13.222;2022-10-16T10:08:57;26.20;41.90
23377;DHT22;14353;46.070;13.222;2022-10-16T10:14:44;26.30;41.60
23377;DHT22;14353;46.070;13.222;2022-10-16T10:19:44;26.50;41.50
23377;DHT22;14353;46.070;13.222;2022-10-16T10:22:22;26.50;41.30
23377;DHT22;14353;46.070;13.222;2022-10-16T10:24:59;26.60;41.30
23377;DHT22;14353;46.070;13.222;2022-10-16T10:27:29;26.60;41.10
23377;DHT22;14353;46.070;13.222;2022-10-16T10:30:03;26.70;41.10
23377;DHT22;14353;46.070;13.222;2022-10-16T10:35:28;26.80;40.90
23377;DHT22;14353;46.070;13.222;2022-10-16T10:38:01;26.80;40.80
23377;DHT22;14353;46.070;13.222;2022-10-16T10:43:19;26.90;41.30
23377;DHT22;14353;46.070;13.222;2022-10-16T10:45:49;26.90;40.60
23377;DHT22;14353;46.070;13.222;2022-10-16T10:51:06;27.00;40.50
23377;DHT22;14353;46.070;13.222;2022-10-16T11:01:30;26.80;40.70
23377;DHT22;14353;46.070;13.222;2022-10-16T11:06:45;26.70;40.90
23377;DHT22;14353;46.070;13.222;2022-10-16T11:17:38;26.60;41.40
23377;DHT22;14353;46.070;13.222;2022-10-16T11:20:12;26.50;41.50
23377;DHT22;14353;46.070;13.222;2022-10-16T11:22:47;26.50;41.60
23377;DHT22;14353;46.070;13.222;2022-10-16T11:25:16;26.40;41.80
23377;DHT22;14353;46.070;13.222;2022-10-16T11:27:45;26.30;41.90
23377;DHT22;14353;46.070;13.222;2022-10-16T11:30:25;26.30;42.00
23377;DHT22;14353;46.070;13.222;2022-10-16T11:35:38;26.10;42.30
23377;DHT22;14353;46.070;13.222;2022-10-16T11:40:53;26.00;42.60
23377;DHT22;14353;46.070;13.222;2022-10-16T11:43:38;25.90;42.70
23377;DHT22;14353;46.070;13.222;2022-10-16T11:46:08;25.90;42.80
23377;DHT22;14353;46.070;13.222;2022-10-16T11:51:16;25.70;43.00
23377;DHT22;14353;46.070;13.222;2022-10-16T11:56:13;25.70;43.40
23377;DHT22;14353;46.070;13.222;2022-10-16T11:58:49;25.60;43.50
23377;DHT22;14353;46.070;13.222;2022-10-16T12:01:18;25.60;43.60
23377;DHT22;14353;46.070;13.222;2022-10-16T12:03:54;25.50;43.60
23377;DHT22;14353;46.070;13.222;2022-10-16T12:06:52;25.50;43.70
23377;DHT22;14353;46.070;13.222;2022-10-16T12:09:22;25.40;43.70
23377;DHT22;14353;46.070;13.222;2022-10-16T12:11:50;25.40;43.70
23377;DHT22;14353;46.070;13.222;2022-10-16T12:19:20;25.50;43.70
23377;DHT22;14353;46.070;13.222;2022-10-16T12:21:46;25.50;43.70
23377;DHT22;14353;46.070;13.222;2022-10-16T12:26:56;25.60;43.50
23377;DHT22;14353;46.070;13.222;2022-10-16T12:32:00;25.70;43.20
23377;DHT22;14353;46.070;13.222;2022-10-16T12:36:53;25.90;43.00
23377;DHT22;14353;46.070;13.222;2022-10-16T12:39:34;25.80;42.90
23377;DHT22;14353;46.070;13.222;2022-10-16T12:42:17;25.90;43.00
23377;DHT22;14353;46.070;13.222;2022-10-16T12:44:44;26.00;42.70
23377;DHT22;14353;46.070;13.222;2022-10-16T12:47:35;26.20;42.20
23377;DHT22;14353;46.070;13.222;2022-10-16T12:50:02;26.30;42.00
23377;DHT22;14353;46.070;13.222;2022-10-16T12:52:35;26.20;42.10
23377;DHT22;14353;46.070;13.222;2022-10-16T12:55:14;26.20;42.20
23377;DHT22;14353;46.070;13.222;2022-10-16T13:00:32;26.20;42.30
23377;DHT22;14353;46.070;13.222;2022-10-16T13:11:05;26.20;42.20
23377;DHT22;14353;46.070;13.222;2022-10-16T13:24:16;26.10;42.50
23377;DHT22;14353;46.070;13.222;2022-10-16T13:26:52;26.10;42.70
23377;DHT22;14353;46.070;13.222;2022-10-16T13:29:22;26.00;42.70
23377;DHT22;14353;46.070;13.222;2022-10-16T13:32:09;26.00;42.80
23377;DHT22;14353;46.070;13.222;2022-10-16T13:34:47;26.00;43.50
23377;DHT22;14353;46.070;13.222;2022-10-16T13:37:23;25.90;42.90
23377;DHT22;14353;46.070;13.222;2022-10-16T13:39:49;25.90;43.00
23377;DHT22;14353;46.070;13.222;2022-10-16T13:42:24;25.80;43.10
23377;DHT22;14353;46.070;13.222;2022-10-16T13:44:51;25.80;43.30
23377;DHT22;14353;46.070;13.222;2022-10-16T13:47:24;25.70;43.50
23377;DHT22;14353;46.070;13.222;2022-10-16T13:50:00;25.70;43.60
23377;DHT22;14353;46.070;13.222;2022-10-16T13:52:29;25.60;43.60
23377;DHT22;14353;46.070;13.222;2022-10-16T13:54:58;25.60;43.70
23377;DHT22;14353;46.070;13.222;2022-10-16T13:57:24;25.60;43.80
23377;DHT22;14353;46.070;13.222;2022-10-16T13:59:50;25.50;43.80
23377;DHT22;14353;46.070;13.222;2022-10-16T14:04:56;25.40;44.00
23377;DHT22;14353;46.070;13.222;2022-10-16T14:07:32;25.40;44.10
23377;DHT22;14353;46.070;13.222;2022-10-16T14:10:00;25.40;44.20
23377;DHT22;14353;46.070;13.222;2022-10-16T14:12:26;25.40;44.20
23377;DHT22;14353;46.070;13.222;2022-10-16T14:14:53;25.40;44.30
23377;DHT22;14353;46.070;13.222;2022-10-16T14:17:20;25.30;44.30
23377;DHT22;14353;46.070;13.222;2022-10-16T14:19:48;25.30;44.40
23377;DHT22;14353;46.070;13.222;2022-10-16T14:25:15;25.30;44.50
23377;DHT22;14353;46.070;13.222;2022-10-16T14:27:41;25.30;44.50
23377;DHT22;14353;46.070;13.222;2022-10-16T14:30:20;25.20;44.60
23377;DHT22;14353;46.070;13.222;2022-10-16T14:32:59;25.20;44.60
23377;DHT22;14353;46.070;13.222;2022-10-16T14:35:27;25.20;44.70
23377;DHT22;14353;46.070;13.222;2022-10-16T14:37:54;25.10;44.70
23377;DHT22;14353;46.070;13.222;2022-10-16T14:40:20;25.20;44.80
23377;DHT22;14353;46.070;13.222;2022-10-16T14:42:47;25.20;44.90
23377;DHT22;14353;46.070;13.222;2022-10-16T14:45:12;25.10;44.80
23377;DHT22;14353;46.070;13.222;2022-10-16T14:47:50;25.10;44.80
23377;DHT22;14353;46.070;13.222;2022-10-16T14:50:18;25.10;44.80
23377;DHT22;14353;46.070;13.222;2022-10-16T14:52:44;25.10;44.80
23377;DHT22;14353;46.070;13.222;2022-10-16T14:55:09;25.10;44.80
23377;DHT22;14353;46.070;13.222;2022-10-16T14:57:36;25.10;44.90
23377;DHT22;14353;46.070;13.222;2022-10-16T15:00:03;25.10;44.80
23377;DHT22;14353;46.070;13.222;2022-10-16T15:02:32;25.10;44.90
23377;DHT22;14353;46.070;13.222;2022-10-16T15:05:12;25.10;44.90
23377;DHT22;14353;46.070;13.222;2022-10-16T15:07:38;25.00;44.90
23377;DHT22;14353;46.070;13.222;2022-10-16T15:10:04;25.00;44.90
23377;DHT22;14353;46.070;13.222;2022-10-16T15:12:30;25.00;44.90
23377;DHT22;14353;46.070;13.222;2022-10-16T15:17:49;25.10;44.90
23377;DHT22;14353;46.070;13.222;2022-10-16T15:20:18;25.10;44.90
23377;DHT22;14353;46.070;13.222;2022-10-16T15:22:43;25.10;44.80
23377;DHT22;14353;46.070;13.222;2022-10-16T15:27:59;25.00;44.90
23377;DHT22;14353;46.070;13.222;2022-10-16T15:30:27;25.00;45.00
23377;DHT22;14353;46.070;13.222;2022-10-16T15:32:56;25.00;45.00
23377;DHT22;14353;46.070;13.222;2022-10-16T15:35:25;25.00;45.10
23377;DHT22;14353;46.070;13.222;2022-10-16T15:37:51;25.00;45.10
23377;DHT22;14353;46.070;13.222;2022-10-16T15:40:17;24.90;45.10
23377;DHT22;14353;46.070;13.222;2022-10-16T15:42:43;24.90;45.20
23377;DHT22;14353;46.070;13.222;2022-10-16T15:45:10;24.90;45.20
23377;DHT22;14353;46.070;13.222;2022-10-16T15:47:35;24.90;45.30
23377;DHT22;14353;46.070;13.222;2022-10-16T15:50:01;24.90;45.30
23377;DHT22;14353;46.070;13.222;2022-10-16T15:52:27;24.90;45.40
23377;DHT22;14353;46.070;13.222;2022-10-16T15:54:57;24.90;45.40
23377;DHT22;14353;46.070;13.222;2022-10-16T15:57:26;24.80;45.40
23377;DHT22;14353;46.070;13.222;2022-10-16T15:59:52;24.80;45.40
23377;DHT22;14353;46.070;13.222;2022-10-16T16:02:18;24.80;45.50
23377;DHT22;14353;46.070;13.222;2022-10-16T16:04:44;24.80;45.50
23377;DHT22;14353;46.070;13.222;2022-10-16T16:07:10;24.80;45.60
23377;DHT22;14353;46.070;13.222;2022-10-16T16:09:36;24.70;46.30
23377;DHT22;14353;46.070;13.222;2022-10-16T16:12:02;24.70;45.70
23377;DHT22;14353;46.070;13.222;2022-10-16T16:14:28;24.70;45.80
23377;DHT22;14353;46.070;13.222;2022-10-16T16:16:54;24.70;45.80
23377;DHT22;14353;46.070;13.222;2022-10-16T16:19:23;24.60;45.80
23377;DHT22;14353;46.070;13.222;2022-10-16T16:21:49;24.60;45.90
23377;DHT22;14353;46.070;13.222;2022-10-16T16:24:15;24.60;46.00
23377;DHT22;14353;46.070;13.222;2022-10-16T16:26:41;24.60;46.00
23377;DHT22;14353;46.070;13.222;2022-10-16T16:29:09;24.60;46.10
23377;DHT22;14353;46.070;13.222;2022-10-16T16:31:36;24.60;46.10
23377;DHT22;14353;46.070;13.222;2022-10-16T16:34:02;24.60;46.10
23377;DHT22;14353;46.070;13.222;2022-10-16T16:36:28;24.50;46.10
23377;DHT22;14353;46.070;13.222;2022-10-16T16:38:54;24.50;46.10
23377;DHT22;14353;46.070;13.222;2022-10-16T16:41:21;24.50;46.10
23377;DHT22;14353;46.070;13.222;2022-10-16T16:43:47;24.50;46.20
23377;DHT22;14353;46.070;13.222;2022-10-16T16:46:13;24.50;46.30
23377;DHT22;14353;46.070;13.222;2022-10-16T16:48:39;24.50;46.30
23377;DHT22;14353;46.070;13.222;2022-10-16T16:51:09;24.40;46.30
23377;DHT22;14353;46.070;13.222;2022-10-16T16:53:37;24.40;46.40
23377;DHT22;14353;46.070;13.222;2022-10-16T16:56:03;24.40;46.40
23377;DHT22;14353;46.070;13.222;2022-10-16T16:58:32;24.40;46.40
23377;DHT22;14353;46.070;13.222;2022-10-16T17:00:58;24.40;46.50
23377;DHT22;14353;46.070;13.222;2022-10-16T17:03:27;24.30;47.00
23377;DHT22;14353;46.070;13.222;2022-10-16T17:08:45;24.30;46.60
23377;DHT22;14353;46.070;13.222;2022-10-16T17:11:11;24.30;46.60
23377;DHT22;14353;46.070;13.222;2022-10-16T17:13:37;24.30;46.70
23377;DHT22;14353;46.070;13.222;2022-10-16T17:16:04;24.30;46.70
23377;DHT22;14353;46.070;13.222;2022-10-16T17:18:30;24.20;46.70
23377;DHT22;14353;46.070;13.222;2022-10-16T17:21:03;24.20;46.70
23377;DHT22;14353;46.070;13.222;2022-10-16T17:23:32;24.20;46.80
23377;DHT22;14353;46.070;13.222;2022-10-16T17:26:09;24.20;46.80